createdAt,value
2017-10-14T00:02:24.989Z,15.04
2017-10-14T00:04:52.608Z,14.97
2017-10-14T00:07:20.705Z,15.04
2017-10-14T00:09:48.298Z,14.96
2017-10-14T00:12:15.939Z,15.02
2017-10-14T00:14:44.340Z,15.15
2017-10-14T00:17:11.963Z,15.14
2017-10-14T00:19:39.615Z,15.10
2017-10-14T00:22:08.188Z,15.02
2017-10-14T00:24:35.762Z,14.92
2017-10-14T00:27:03.495Z,14.92
2017-10-14T00:29:32.366Z,14.79
2017-10-14T00:32:01.153Z,14.70
2017-10-14T00:34:28.974Z,14.60
2017-10-14T00:36:56.762Z,14.61
2017-10-14T00:39:25.259Z,14.64
2017-10-14T00:41:53.102Z,14.63
2017-10-14T00:44:22.638Z,14.70
2017-10-14T00:46:50.340Z,14.63
2017-10-14T00:49:17.990Z,14.66
2017-10-14T00:51:45.697Z,14.71
2017-10-14T00:54:14.448Z,14.63
2017-10-14T00:56:42.193Z,14.70
2017-10-14T00:59:10.066Z,14.32
2017-10-14T01:01:37.684Z,14.69
2017-10-14T01:04:05.320Z,14.76
2017-10-14T01:06:32.914Z,14.72
2017-10-14T01:09:01.794Z,14.75
2017-10-14T01:11:29.409Z,14.78
2017-10-14T01:13:58.236Z,14.71
2017-10-14T01:16:26.002Z,14.75
2017-10-14T01:18:53.583Z,14.56
2017-10-14T01:21:21.244Z,14.69
2017-10-14T01:23:48.931Z,14.80
2017-10-14T01:26:16.545Z,14.66
2017-10-14T01:28:44.215Z,14.74
2017-10-14T01:31:11.896Z,14.69
2017-10-14T01:33:39.733Z,14.71
2017-10-14T01:36:09.188Z,14.68
2017-10-14T01:38:36.809Z,14.72
2017-10-14T01:41:04.378Z,14.75
2017-10-14T01:43:32.074Z,14.65
2017-10-14T01:46:00.838Z,14.58
2017-10-14T01:48:28.526Z,14.58
2017-10-14T01:50:56.116Z,14.66
2017-10-14T01:53:24.743Z,14.50
2017-10-14T01:55:52.526Z,14.49
2017-10-14T01:58:20.100Z,14.49
2017-10-14T02:00:47.721Z,14.59
2017-10-14T02:03:15.289Z,14.37
2017-10-14T02:05:43.207Z,14.20
2017-10-14T02:08:10.838Z,14.07
2017-10-14T02:10:38.415Z,13.98
2017-10-14T02:13:05.960Z,13.91
2017-10-14T02:15:33.591Z,13.77
2017-10-14T02:18:01.175Z,13.53
2017-10-14T02:20:28.762Z,13.58
2017-10-14T02:22:56.370Z,13.53
2017-10-14T02:25:23.976Z,13.58
2017-10-14T02:27:51.548Z,13.47
2017-10-14T02:30:19.127Z,13.30
2017-10-14T02:32:46.699Z,13.28
2017-10-14T02:35:14.447Z,13.31
2017-10-14T02:37:42.044Z,13.17
2017-10-14T02:40:09.678Z,13.29
2017-10-14T02:42:37.507Z,13.31
2017-10-14T02:45:05.079Z,13.11
2017-10-14T02:47:32.616Z,12.84
2017-10-14T02:50:00.176Z,12.75
2017-10-14T02:52:27.849Z,12.65
2017-10-14T02:54:55.514Z,12.77
2017-10-14T02:57:23.333Z,12.77
2017-10-14T02:59:50.941Z,12.82
2017-10-14T03:02:18.549Z,13.01
2017-10-14T03:04:46.398Z,12.95
2017-10-14T03:07:13.966Z,13.01
2017-10-14T03:09:41.581Z,13.00
2017-10-14T03:12:09.195Z,13.10
2017-10-14T03:14:36.861Z,13.10
2017-10-14T03:17:05.432Z,13.07
2017-10-14T03:19:33.031Z,13.14
2017-10-14T03:22:00.676Z,13.28
2017-10-14T03:24:28.486Z,13.26
2017-10-14T03:26:56.117Z,13.37
2017-10-14T03:29:23.706Z,13.36
2017-10-14T03:31:51.381Z,13.37
2017-10-14T03:34:18.997Z,13.23
2017-10-14T03:36:46.755Z,13.23
2017-10-14T03:41:41.216Z,12.97
2017-10-14T03:44:08.811Z,12.93
2017-10-14T03:46:36.467Z,12.75
2017-10-14T03:49:04.064Z,12.68
2017-10-14T03:51:31.944Z,12.51
2017-10-14T03:53:59.568Z,12.43
2017-10-14T03:56:27.404Z,12.50
2017-10-14T03:58:55.064Z,12.34
2017-10-14T04:01:22.680Z,12.25
2017-10-14T04:03:50.271Z,12.22
2017-10-14T04:06:17.898Z,12.05
2017-10-14T04:08:45.707Z,12.12
2017-10-14T04:11:13.253Z,12.03
2017-10-14T04:13:41.143Z,11.90
2017-10-14T04:16:08.743Z,11.88
2017-10-14T04:18:36.843Z,11.84
2017-10-14T04:21:05.271Z,11.80
2017-10-14T04:23:32.882Z,11.82
2017-10-14T04:26:00.450Z,11.74
2017-10-14T04:28:28.014Z,11.76
2017-10-14T04:30:55.652Z,11.68
2017-10-14T04:33:23.395Z,11.65
2017-10-14T04:35:51.969Z,11.61
2017-10-14T04:38:19.763Z,11.62
2017-10-14T04:40:47.355Z,11.52
2017-10-14T04:43:15.782Z,11.51
2017-10-14T04:45:43.377Z,11.45
2017-10-14T04:48:10.932Z,11.46
2017-10-14T04:50:38.853Z,11.49
2017-10-14T04:53:06.660Z,11.76
2017-10-14T04:55:34.243Z,12.02
2017-10-14T04:58:02.093Z,12.20
2017-10-14T05:00:29.802Z,12.43
2017-10-14T05:02:57.472Z,12.87
2017-10-14T05:05:25.756Z,13.13
2017-10-14T05:07:53.347Z,13.53
2017-10-14T05:10:21.000Z,13.78
2017-10-14T05:12:48.663Z,14.06
2017-10-14T05:15:16.445Z,14.38
2017-10-14T05:17:44.173Z,14.41
2017-10-14T05:20:11.771Z,14.44
2017-10-14T05:22:39.499Z,14.35
2017-10-14T05:25:07.572Z,14.74
2017-10-14T05:27:35.381Z,14.63
2017-10-14T05:30:04.716Z,14.25
2017-10-14T05:32:32.327Z,14.29
2017-10-14T05:35:00.099Z,14.26
2017-10-14T05:37:27.807Z,14.70
2017-10-14T05:39:55.616Z,15.31
2017-10-14T05:42:23.220Z,15.61
2017-10-14T05:44:50.917Z,16.02
2017-10-14T05:47:18.450Z,16.28
2017-10-14T05:49:46.230Z,16.39
2017-10-14T05:52:13.959Z,16.54
2017-10-14T05:54:41.714Z,17.59
2017-10-14T05:57:09.359Z,18.21
2017-10-14T05:59:37.506Z,18.81
2017-10-14T06:02:05.331Z,19.43
2017-10-14T06:04:33.048Z,20.43
2017-10-14T06:07:00.664Z,20.71
2017-10-14T06:09:28.348Z,20.77
2017-10-14T06:11:56.013Z,20.61
2017-10-14T06:14:23.716Z,21.02
2017-10-14T06:16:51.600Z,21.01
2017-10-14T06:19:19.503Z,20.75
2017-10-14T06:21:47.570Z,21.55
2017-10-14T06:24:15.492Z,21.50
2017-10-14T06:26:43.322Z,22.08
2017-10-14T06:29:11.089Z,22.94
2017-10-14T06:31:38.943Z,22.52
2017-10-14T06:34:06.688Z,22.42
2017-10-14T06:36:34.350Z,22.78
2017-10-14T06:39:01.966Z,23.04
2017-10-14T06:41:29.676Z,23.17
2017-10-14T06:43:57.367Z,23.58
2017-10-14T06:46:25.087Z,23.42
2017-10-14T06:48:52.863Z,23.41
2017-10-14T06:51:21.609Z,23.51
2017-10-14T06:53:49.261Z,23.76
2017-10-14T06:56:16.953Z,23.09
2017-10-14T06:58:44.675Z,21.93
2017-10-14T07:01:13.143Z,22.43
2017-10-14T07:03:40.731Z,22.50
2017-10-14T07:06:08.830Z,22.95
2017-10-14T07:08:36.464Z,23.70
2017-10-14T07:11:04.116Z,23.38
2017-10-14T07:13:31.970Z,23.16
2017-10-14T07:15:59.648Z,23.19
2017-10-14T07:18:27.292Z,23.21
2017-10-14T07:20:54.934Z,23.77
2017-10-14T07:23:22.533Z,23.74
2017-10-14T07:25:50.223Z,23.65
2017-10-14T07:28:18.803Z,23.67
2017-10-14T07:30:46.816Z,24.42
2017-10-14T07:33:14.414Z,23.75
2017-10-14T07:35:42.164Z,23.23
2017-10-14T07:38:09.799Z,23.61
2017-10-14T07:40:37.438Z,23.34
2017-10-14T07:43:05.031Z,23.68
2017-10-14T07:45:33.712Z,23.42
2017-10-14T07:48:01.328Z,24.49
2017-10-14T07:50:28.978Z,24.08
2017-10-14T07:52:56.611Z,24.31
2017-10-14T07:55:24.924Z,23.23
2017-10-14T07:57:54.284Z,23.95
2017-10-14T08:00:22.332Z,24.21
2017-10-14T08:02:50.069Z,24.29
2017-10-14T08:05:17.700Z,25.00
2017-10-14T08:07:45.387Z,24.68
2017-10-14T08:10:13.415Z,24.51
2017-10-14T08:12:41.234Z,24.55
2017-10-14T08:15:08.850Z,23.88
2017-10-14T08:17:36.529Z,23.91
2017-10-14T08:20:04.128Z,24.05
2017-10-14T08:22:32.652Z,24.04
2017-10-14T08:25:00.258Z,24.32
2017-10-14T08:27:28.088Z,23.74
2017-10-14T08:29:56.291Z,23.30
2017-10-14T08:32:23.968Z,23.92
2017-10-14T08:34:51.618Z,24.12
2017-10-14T08:37:19.277Z,23.93
2017-10-14T08:39:46.912Z,24.01
2017-10-14T08:42:14.466Z,23.70
2017-10-14T08:44:42.048Z,23.26
2017-10-14T08:47:09.707Z,23.72
2017-10-14T08:49:37.363Z,23.71
2017-10-14T08:52:05.022Z,23.58
2017-10-14T08:54:32.718Z,23.68
2017-10-14T08:57:00.376Z,24.15
2017-10-14T08:59:28.207Z,23.95
2017-10-14T09:01:56.026Z,23.96
2017-10-14T09:04:23.781Z,23.91
2017-10-14T09:06:51.360Z,24.04
2017-10-14T09:09:19.064Z,24.00
2017-10-14T09:11:46.795Z,23.58
2017-10-14T09:14:14.390Z,24.14
2017-10-14T09:16:42.389Z,24.09
2017-10-14T09:19:10.160Z,23.77
2017-10-14T09:21:37.732Z,23.54
2017-10-14T09:24:06.227Z,23.69
2017-10-14T09:26:34.061Z,23.94
2017-10-14T09:29:01.686Z,23.51
2017-10-14T09:31:38.876Z,23.33
2017-10-14T09:34:09.677Z,23.47
2017-10-14T09:39:14.827Z,23.25
2017-10-14T09:41:42.442Z,23.43
2017-10-14T09:44:10.114Z,22.85
2017-10-14T09:46:37.812Z,23.02
2017-10-14T09:49:05.499Z,23.08
2017-10-14T09:51:33.115Z,22.89
2017-10-14T09:54:00.959Z,22.72
2017-10-14T09:56:29.095Z,23.19
2017-10-14T09:58:57.045Z,23.26
2017-10-14T10:01:25.313Z,23.56
2017-10-14T10:03:52.890Z,23.65
2017-10-14T10:06:20.535Z,23.77
2017-10-14T10:08:49.187Z,23.90
2017-10-14T10:11:16.777Z,23.78
2017-10-14T10:13:44.404Z,24.02
2017-10-14T10:16:12.032Z,24.02
2017-10-14T10:18:39.619Z,23.54
2017-10-14T10:21:07.256Z,23.44
2017-10-14T10:23:35.194Z,23.46
2017-10-14T10:26:02.842Z,23.99
2017-10-14T10:28:30.454Z,23.56
2017-10-14T10:30:58.084Z,23.59
2017-10-14T10:33:25.882Z,23.24
2017-10-14T10:35:54.498Z,23.36
2017-10-14T10:38:23.200Z,23.40
2017-10-14T10:40:50.849Z,23.19
2017-10-14T10:43:18.656Z,23.18
2017-10-14T10:45:46.346Z,22.72
2017-10-14T10:48:14.038Z,22.60
2017-10-14T10:50:41.718Z,22.37
2017-10-14T10:53:13.214Z,22.22
2017-10-14T10:55:40.891Z,21.97
2017-10-14T10:58:08.526Z,22.33
2017-10-14T11:00:37.550Z,22.51
2017-10-14T11:03:05.201Z,23.08
2017-10-14T11:05:32.873Z,22.50
2017-10-14T11:08:00.821Z,22.53
2017-10-14T11:10:28.455Z,22.05
2017-10-14T11:12:56.045Z,22.21
2017-10-14T11:15:23.788Z,22.35
2017-10-14T11:17:51.773Z,22.64
2017-10-14T11:20:23.631Z,22.30
2017-10-14T11:22:51.311Z,21.83
2017-10-14T11:25:19.215Z,21.53
2017-10-14T11:27:47.177Z,21.89
2017-10-14T11:30:14.877Z,22.41
2017-10-14T11:32:42.564Z,22.13
2017-10-14T11:35:11.149Z,22.19
2017-10-14T11:37:39.266Z,22.61
2017-10-14T11:40:06.986Z,22.79
2017-10-14T11:42:36.682Z,22.87
2017-10-14T11:45:04.356Z,23.04
2017-10-14T11:47:32.323Z,22.92
2017-10-14T11:50:00.058Z,22.74
2017-10-14T11:52:34.041Z,22.84
2017-10-14T11:55:02.603Z,22.76
2017-10-14T11:57:31.016Z,22.84
2017-10-14T12:00:00.272Z,22.87
2017-10-14T12:02:28.618Z,23.01
2017-10-14T12:04:56.740Z,22.82
2017-10-14T12:07:25.379Z,22.94
2017-10-14T12:09:53.669Z,22.93
2017-10-14T12:12:22.559Z,22.72
2017-10-14T12:14:51.042Z,22.44
2017-10-14T12:17:19.930Z,22.22
2017-10-14T12:19:48.976Z,21.90
2017-10-14T12:22:18.114Z,21.54
2017-10-14T12:24:47.491Z,21.89
2017-10-14T12:27:24.944Z,21.83
2017-10-14T12:29:54.468Z,22.13
2017-10-14T12:32:23.022Z,22.07
2017-10-14T12:34:51.326Z,22.14
2017-10-14T12:37:19.598Z,22.15
2017-10-14T12:39:47.941Z,21.99
2017-10-14T12:42:16.033Z,22.05
2017-10-14T12:44:45.292Z,22.21
2017-10-14T12:47:14.677Z,22.44
2017-10-14T12:49:43.306Z,22.36
2017-10-14T12:52:11.570Z,22.45
2017-10-14T12:54:39.943Z,22.46
2017-10-14T12:57:08.280Z,22.48
2017-10-14T12:59:36.505Z,22.38
2017-10-14T13:02:06.103Z,22.35
2017-10-14T13:04:35.536Z,22.44
2017-10-14T13:07:04.188Z,22.36
2017-10-14T13:09:32.396Z,22.28
2017-10-14T13:12:00.459Z,22.16
2017-10-14T13:14:29.566Z,22.16
2017-10-14T13:16:58.303Z,21.86
2017-10-14T13:19:26.655Z,21.81
2017-10-14T13:21:54.889Z,21.80
2017-10-14T13:24:23.246Z,21.72
2017-10-14T13:26:51.420Z,21.49
2017-10-14T13:29:20.022Z,21.41
2017-10-14T13:31:49.585Z,21.44
2017-10-14T13:34:18.869Z,21.33
2017-10-14T13:36:47.306Z,21.23
2017-10-14T13:39:15.377Z,21.17
2017-10-14T13:41:43.398Z,20.84
2017-10-14T13:44:11.926Z,20.79
2017-10-14T13:46:40.216Z,20.80
2017-10-14T13:49:09.304Z,20.71
2017-10-14T13:51:38.480Z,20.70
2017-10-14T13:54:06.969Z,20.63
2017-10-14T13:56:35.152Z,20.69
2017-10-14T13:59:03.669Z,20.41
2017-10-14T14:01:31.810Z,20.42
2017-10-14T14:03:59.854Z,20.33
2017-10-14T14:06:27.819Z,20.38
2017-10-14T14:08:56.039Z,20.41
2017-10-14T14:11:23.854Z,20.49
2017-10-14T14:13:51.694Z,20.46
2017-10-14T14:16:19.901Z,20.46
2017-10-14T14:18:48.050Z,20.49
2017-10-14T14:21:16.037Z,20.35
2017-10-14T14:23:44.229Z,20.31
2017-10-14T14:26:12.616Z,20.29
2017-10-14T14:28:41.009Z,19.99
2017-10-14T14:31:09.361Z,19.96
2017-10-14T14:33:37.530Z,19.91
2017-10-14T14:36:06.279Z,19.86
2017-10-14T14:38:34.848Z,19.71
2017-10-14T14:41:03.167Z,19.55
2017-10-14T14:43:32.229Z,19.62
2017-10-14T14:46:00.983Z,19.58
2017-10-14T14:48:29.134Z,19.55
2017-10-14T14:50:57.439Z,19.57
2017-10-14T14:53:25.996Z,19.46
2017-10-14T14:55:54.302Z,19.41
2017-10-14T14:58:22.780Z,19.45
2017-10-14T15:00:51.039Z,19.33
2017-10-14T15:03:19.612Z,19.30
2017-10-14T15:05:47.649Z,19.26
2017-10-14T15:08:15.703Z,19.17
2017-10-14T15:10:44.013Z,19.14
2017-10-14T15:13:12.526Z,19.12
2017-10-14T15:15:40.768Z,19.10
2017-10-14T15:18:09.825Z,19.08
2017-10-14T15:20:38.440Z,19.02
2017-10-14T15:23:06.866Z,18.83
2017-10-14T15:25:35.163Z,18.77
2017-10-14T15:28:03.296Z,18.66
2017-10-14T15:30:31.894Z,18.65
2017-10-14T15:32:59.879Z,18.61
2017-10-14T15:35:28.017Z,18.60
2017-10-14T15:37:58.066Z,18.54
2017-10-14T15:40:26.362Z,18.38
2017-10-14T15:42:55.528Z,18.33
2017-10-14T15:45:23.716Z,18.26
2017-10-14T15:47:52.036Z,18.25
2017-10-14T15:50:20.245Z,18.21
2017-10-14T15:52:48.743Z,18.13
2017-10-14T15:55:16.813Z,18.14
2017-10-14T15:57:44.521Z,18.15
2017-10-14T16:00:13.324Z,18.14
2017-10-14T16:02:41.245Z,18.08
2017-10-14T16:05:09.088Z,17.95
2017-10-14T16:07:40.277Z,17.88
2017-10-14T16:10:09.774Z,17.85
2017-10-14T16:12:37.710Z,17.82
2017-10-14T16:15:08.662Z,17.73
2017-10-14T16:17:36.897Z,17.82
2017-10-14T16:20:05.255Z,17.71
2017-10-14T16:22:32.841Z,17.69
2017-10-14T16:25:02.049Z,17.67
2017-10-14T16:27:31.000Z,17.50
2017-10-14T16:29:58.666Z,17.50
2017-10-14T16:32:26.695Z,17.54
2017-10-14T16:34:54.811Z,17.49
2017-10-14T16:37:22.404Z,17.52
2017-10-14T16:39:51.744Z,17.52
2017-10-14T16:42:20.328Z,17.42
2017-10-14T16:44:48.494Z,17.48
2017-10-14T16:47:17.521Z,17.44
2017-10-14T16:49:48.047Z,17.31
2017-10-14T16:52:16.147Z,17.38
2017-10-14T16:54:44.191Z,17.44
2017-10-14T16:57:12.158Z,17.31
2017-10-14T16:59:40.240Z,17.31
2017-10-14T17:02:08.401Z,17.38
2017-10-14T17:04:38.314Z,17.32
2017-10-14T17:07:06.545Z,17.27
2017-10-14T17:09:34.634Z,17.32
2017-10-14T17:12:02.692Z,17.27
2017-10-14T17:14:31.258Z,17.22
2017-10-14T17:17:01.873Z,17.12
2017-10-14T17:19:30.432Z,17.11
2017-10-14T17:21:58.843Z,17.05
2017-10-14T17:24:27.142Z,17.14
2017-10-14T17:26:55.400Z,17.11
2017-10-14T17:31:57.223Z,17.08
2017-10-14T17:34:25.361Z,17.07
2017-10-14T17:36:53.581Z,17.08
2017-10-14T17:39:22.148Z,17.04
2017-10-14T17:41:50.595Z,16.97
2017-10-14T17:44:20.207Z,16.93
2017-10-14T17:46:49.151Z,16.94
2017-10-14T17:49:18.550Z,16.88
2017-10-14T17:51:47.035Z,16.85
2017-10-14T17:54:17.718Z,16.71
2017-10-14T17:56:46.419Z,16.74
2017-10-14T17:59:14.888Z,16.74
2017-10-14T18:01:43.660Z,16.73
2017-10-14T18:04:13.474Z,16.70
2017-10-14T18:06:41.759Z,16.64
2017-10-14T18:09:10.481Z,16.56
2017-10-14T18:11:39.248Z,16.57
2017-10-14T18:14:07.559Z,16.63
2017-10-14T18:16:37.019Z,16.62
2017-10-14T18:19:05.384Z,16.45
2017-10-14T18:21:33.782Z,16.41
2017-10-14T18:24:02.386Z,16.40
2017-10-14T18:26:31.020Z,16.33
2017-10-14T18:28:59.498Z,16.38
2017-10-14T18:31:28.325Z,16.27
2017-10-14T18:33:57.592Z,16.20
2017-10-14T18:36:27.327Z,16.26
2017-10-14T18:38:56.412Z,16.36
2017-10-14T18:41:25.120Z,16.27
2017-10-14T18:43:53.468Z,16.29
2017-10-14T18:46:22.862Z,16.26
2017-10-14T18:48:51.835Z,16.29
2017-10-14T18:51:20.456Z,16.31
2017-10-14T18:53:49.915Z,16.29
2017-10-14T18:56:20.041Z,16.05
2017-10-14T18:58:49.681Z,16.06
2017-10-14T19:01:20.083Z,15.92
2017-10-14T19:03:50.395Z,15.78
2017-10-14T19:06:20.645Z,15.97
2017-10-14T19:08:49.949Z,17.15
2017-10-14T19:11:18.387Z,16.95
2017-10-14T19:13:47.281Z,16.82
2017-10-14T19:16:20.632Z,16.47
2017-10-14T19:18:52.088Z,16.50
2017-10-14T19:21:21.270Z,16.31
2017-10-14T19:23:55.342Z,16.30
2017-10-14T19:26:24.730Z,16.44
2017-10-14T19:29:00.768Z,16.77
2017-10-14T19:31:30.253Z,16.81
2017-10-14T19:33:58.899Z,16.92
2017-10-14T19:36:27.573Z,16.81
2017-10-14T19:38:56.572Z,16.90
2017-10-14T19:41:25.256Z,16.57
2017-10-14T19:43:54.792Z,16.62
2017-10-14T19:46:24.255Z,16.50
2017-10-14T19:48:52.510Z,16.51
2017-10-14T19:51:21.757Z,16.69
2017-10-14T19:53:51.319Z,16.50
2017-10-14T19:56:20.692Z,16.58
2017-10-14T19:58:48.772Z,16.66
2017-10-14T20:01:17.365Z,16.45
2017-10-14T20:03:47.073Z,16.47
2017-10-14T20:06:19.682Z,16.44
2017-10-14T20:08:48.749Z,16.35
2017-10-14T20:11:17.051Z,16.37
2017-10-14T20:13:45.988Z,16.51
2017-10-14T20:16:15.530Z,16.18
2017-10-14T20:18:43.861Z,16.26
2017-10-14T20:21:12.642Z,16.27
2017-10-14T20:23:42.108Z,16.18
2017-10-14T20:26:11.112Z,16.03
2017-10-14T20:28:40.691Z,15.93
2017-10-14T20:31:10.116Z,15.93
2017-10-14T20:33:39.102Z,15.84
2017-10-14T20:36:08.642Z,15.87
2017-10-14T20:38:37.708Z,15.84
2017-10-14T20:41:06.999Z,15.90
2017-10-14T20:43:35.658Z,15.79
2017-10-14T20:46:04.790Z,15.68
2017-10-14T20:48:32.838Z,15.64
2017-10-14T20:51:01.506Z,15.83
2017-10-14T20:53:29.785Z,15.68
2017-10-14T20:55:58.807Z,15.74
2017-10-14T20:58:26.472Z,15.76
2017-10-14T21:00:54.755Z,15.95
2017-10-14T21:03:23.222Z,15.91
2017-10-14T21:05:50.925Z,15.84
2017-10-14T21:08:19.525Z,15.76
2017-10-14T21:10:47.211Z,15.67
2017-10-14T21:13:14.985Z,15.68
2017-10-14T21:15:42.627Z,15.61
2017-10-14T21:18:10.452Z,15.78
2017-10-14T21:20:38.255Z,15.67
2017-10-14T21:23:05.897Z,15.76
2017-10-14T21:25:33.540Z,15.70
2017-10-14T21:28:01.389Z,15.80
2017-10-14T21:30:30.076Z,15.68
2017-10-14T21:32:57.931Z,15.73
2017-10-14T21:35:26.842Z,15.71
2017-10-14T21:37:54.504Z,15.82
2017-10-14T21:40:22.908Z,15.75
2017-10-14T21:42:50.627Z,15.65
2017-10-14T21:45:18.332Z,15.58
2017-10-14T21:47:46.496Z,15.61
2017-10-14T21:50:14.190Z,15.65
2017-10-14T21:52:41.846Z,15.59
2017-10-14T21:55:10.473Z,15.59
2017-10-14T21:57:38.146Z,15.45
2017-10-14T22:00:07.061Z,15.19
2017-10-14T22:02:35.038Z,15.08
2017-10-14T22:05:02.715Z,15.20
2017-10-14T22:07:30.367Z,15.12
2017-10-14T22:09:57.936Z,15.29
2017-10-14T22:12:25.561Z,15.25
2017-10-14T22:14:53.282Z,15.10
2017-10-14T22:17:21.206Z,15.09
2017-10-14T22:19:48.946Z,15.17
2017-10-14T22:22:16.952Z,15.29
2017-10-14T22:24:44.756Z,15.20
2017-10-14T22:27:12.291Z,15.06
2017-10-14T22:29:40.870Z,15.25
2017-10-14T22:32:08.483Z,15.19
2017-10-14T22:34:36.317Z,15.29
2017-10-14T22:37:03.847Z,15.28
2017-10-14T22:39:31.445Z,15.31
2017-10-14T22:41:58.997Z,15.32
2017-10-14T22:44:26.595Z,15.41
2017-10-14T22:46:54.197Z,15.08
2017-10-14T22:49:21.761Z,15.21
2017-10-14T22:51:49.522Z,15.23
2017-10-14T22:54:17.312Z,15.05
2017-10-14T22:56:45.821Z,15.08
2017-10-14T22:59:13.366Z,15.00
2017-10-14T23:01:41.196Z,15.11
2017-10-14T23:04:08.840Z,15.08
2017-10-14T23:06:37.405Z,15.06
2017-10-14T23:09:05.100Z,14.96
2017-10-14T23:11:32.689Z,14.87
2017-10-14T23:14:00.254Z,14.90
2017-10-14T23:16:27.886Z,14.70
2017-10-14T23:18:55.485Z,14.61
2017-10-14T23:21:23.769Z,14.73
2017-10-14T23:23:52.082Z,14.74
2017-10-14T23:26:19.853Z,14.71
2017-10-14T23:28:48.111Z,14.82
2017-10-14T23:31:15.733Z,14.76
2017-10-14T23:33:43.315Z,14.77
2017-10-14T23:36:10.951Z,14.75
2017-10-14T23:38:38.861Z,14.78
2017-10-14T23:41:06.483Z,14.63
2017-10-14T23:43:34.139Z,14.78
2017-10-14T23:46:02.155Z,15.02
2017-10-14T23:48:30.017Z,15.06
2017-10-14T23:50:58.338Z,15.09
2017-10-14T23:53:25.991Z,15.07
2017-10-14T23:55:55.413Z,14.93
2017-10-14T23:58:23.182Z,15.09
